Time;durP1;ratioP1;P1;durP2;ratioP2;P2;SDS_P1;SDS_P2;PMS_P1;PMS_P2;Temp;Humidity;BMP_temperature;BMP_pressure;BME280_temperature;BME280_humidity;BME280_pressure;Samples;Min_cycle;Max_cycle;Signal;HPM_P1;HPM_P2
2023/10/29 00:00:58;;;;;;;6.38;4.10;;;10.50;99.90;;;;;;5015408;28;20037;-80
2023/10/29 00:03:24;;;;;;;6.28;3.70;;;10.50;99.90;;;;;;5035369;28;20030;-79
2023/10/29 00:05:50;;;;;;;6.38;3.30;;;10.50;99.90;;;;;;5028534;28;20030;-80
2023/10/29 00:08:15;;;;;;;7.38;3.80;;;10.60;99.90;;;;;;5022557;28;20042;-80
2023/10/29 00:10:41;;;;;;;6.53;4.13;;;10.60;99.90;;;;;;5019632;28;20494;-79
2023/10/29 00:13:06;;;;;;;7.47;3.67;;;10.60;99.90;;;;;;5029739;28;20026;-79
2023/10/29 00:15:32;;;;;;;6.00;3.60;;;10.60;99.90;;;;;;5033323;28;20120;-80
2023/10/29 00:17:58;;;;;;;4.72;3.50;;;10.60;99.90;;;;;;5032311;28;20045;-79
2023/10/29 00:20:23;;;;;;;5.88;3.70;;;10.60;99.90;;;;;;5015909;28;20033;-80
2023/10/29 00:22:49;;;;;;;5.80;3.70;;;10.60;99.90;;;;;;5034240;28;20080;-80
2023/10/29 00:25:14;;;;;;;6.57;3.90;;;10.60;99.90;;;;;;5034458;28;20041;-79
2023/10/29 00:27:40;;;;;;;6.85;3.92;;;10.70;99.90;;;;;;5015413;28;20034;-78
2023/10/29 00:30:06;;;;;;;7.75;3.67;;;10.70;99.90;;;;;;5033646;28;20037;-78
2023/10/29 00:32:32;;;;;;;5.95;4.40;;;10.70;99.90;;;;;;5032192;28;20052;-79
2023/10/29 00:34:57;;;;;;;5.78;4.38;;;10.70;99.90;;;;;;5031744;28;20512;-78
2023/10/29 00:37:23;;;;;;;5.80;3.78;;;10.70;99.90;;;;;;5032285;28;20076;-78
2023/10/29 00:39:48;;;;;;;6.30;4.57;;;10.70;99.90;;;;;;5032020;28;20033;-79
2023/10/29 00:42:14;;;;;;;5.65;4.50;;;10.60;99.90;;;;;;5031609;28;20025;-79
2023/10/29 00:44:40;;;;;;;6.45;4.40;;;10.70;99.90;;;;;;5014551;28;20056;-79
2023/10/29 00:47:06;;;;;;;5.53;4.68;;;10.80;99.90;;;;;;5031740;28;20045;-79
2023/10/29 00:49:33;;;;;;;7.25;5.18;;;10.80;99.90;;;;;;5031002;28;20087;-78
2023/10/29 00:51:59;;;;;;;7.10;4.78;;;10.80;99.90;;;;;;5031308;28;20099;-78
2023/10/29 00:54:24;;;;;;;5.57;4.43;;;10.80;99.90;;;;;;5032251;28;20045;-79
2023/10/29 00:56:53;;;;;;;6.57;4.90;;;10.80;99.90;;;;;;5032606;28;20041;-78
2023/10/29 00:59:20;;;;;;;6.10;5.15;;;10.80;99.90;;;;;;5032802;28;20099;-80
2023/10/29 01:01:46;;;;;;;5.35;4.28;;;10.90;99.90;;;;;;5033969;28;20136;-79
2023/10/29 01:04:11;;;;;;;9.75;4.00;;;10.80;99.90;;;;;;5033398;28;20069;-78
2023/10/29 01:06:38;;;;;;;4.68;3.90;;;10.80;99.90;;;;;;5018689;28;20508;-79
2023/10/29 01:09:06;;;;;;;5.97;4.80;;;10.80;99.90;;;;;;5031910;28;20034;-78
2023/10/29 01:11:32;;;;;;;5.68;4.25;;;10.90;99.90;;;;;;5034702;28;20053;-79
2023/10/29 01:13:58;;;;;;;4.40;4.00;;;10.90;99.90;;;;;;5017556;28;20045;-80
2023/10/29 01:16:24;;;;;;;6.22;4.50;;;10.90;99.90;;;;;;5034288;28;20122;-79
2023/10/29 01:18:49;;;;;;;6.00;4.47;;;10.90;99.90;;;;;;5034559;28;20404;-78
2023/10/29 01:21:16;;;;;;;5.40;4.00;;;10.90;99.90;;;;;;5035533;28;20034;-81
2023/10/29 01:23:41;;;;;;;6.15;4.38;;;11.00;99.90;;;;;;5034842;28;20046;-80
2023/10/29 01:26:07;;;;;;;4.97;3.97;;;11.00;99.90;;;;;;5016750;28;20527;-78
2023/10/29 01:28:32;;;;;;;5.07;3.88;;;11.00;99.90;;;;;;5034152;28;20489;-79
2023/10/29 01:30:59;;;;;;;5.25;4.00;;;11.00;99.90;;;;;;5016773;28;20267;-79
2023/10/29 01:33:26;;;;;;;6.53;4.13;;;11.00;99.90;;;;;;5016484;28;20049;-80
2023/10/29 01:35:51;;;;;;;5.35;3.78;;;11.10;99.90;;;;;;5036742;28;20037;-80
2023/10/29 01:38:17;;;;;;;5.43;3.83;;;11.10;99.90;;;;;;5018515;28;20049;-80
2023/10/29 01:40:43;;;;;;;5.57;4.35;;;11.10;99.90;;;;;;5034322;28;20037;-80
2023/10/29 01:43:09;;;;;;;6.50;4.28;;;11.20;99.90;;;;;;5034130;28;20038;-80
2023/10/29 01:45:37;;;;;;;5.03;4.00;;;11.20;99.90;;;;;;5033694;28;20045;-80
2023/10/29 01:48:03;;;;;;;6.00;4.22;;;11.20;99.90;;;;;;5019864;28;20083;-81
2023/10/29 01:50:28;;;;;;;5.28;4.20;;;11.20;99.90;;;;;;5018828;28;20038;-80
2023/10/29 01:52:54;;;;;;;7.22;4.43;;;11.30;99.90;;;;;;5035488;28;20813;-80
2023/10/29 01:55:19;;;;;;;6.57;4.72;;;11.30;99.90;;;;;;5035447;28;20034;-81
2023/10/29 01:57:45;;;;;;;10.82;5.55;;;11.40;99.90;;;;;;5042668;28;20405;-81
2023/10/29 02:00:11;;;;;;;5.85;4.60;;;11.40;99.90;;;;;;5042062;28;20064;-79
2023/10/29 02:02:37;;;;;;;5.88;4.97;;;11.50;99.90;;;;;;5025293;28;20075;-79
2023/10/29 02:05:03;;;;;;;7.35;5.00;;;11.50;99.90;;;;;;5041881;28;20113;-81
2023/10/29 02:07:29;;;;;;;5.32;4.80;;;11.60;99.90;;;;;;5038481;28;20103;-81
2023/10/29 02:09:55;;;;;;;6.28;4.55;;;11.60;99.90;;;;;;5025611;28;20037;-80
2023/10/29 02:12:21;;;;;;;6.82;4.57;;;11.60;99.90;;;;;;5042611;28;20033;-81
2023/10/29 02:14:46;;;;;;;6.78;4.32;;;11.60;99.90;;;;;;5042374;28;20493;-80
2023/10/29 02:17:12;;;;;;;5.68;4.55;;;11.70;99.90;;;;;;5041909;28;20464;-82
2023/10/29 02:19:38;;;;;;;4.70;3.92;;;11.70;99.90;;;;;;5041652;28;20155;-81
2023/10/29 02:22:04;;;;;;;8.27;5.30;;;11.80;99.90;;;;;;5041250;28;20496;-81
2023/10/29 02:24:29;;;;;;;5.85;4.40;;;11.80;99.90;;;;;;5040933;28;20034;-83
2023/10/29 02:26:55;;;;;;;6.18;4.10;;;11.90;99.90;;;;;;5024020;28;20033;-81
2023/10/29 02:29:20;;;;;;;5.72;4.30;;;11.90;99.90;;;;;;5041229;28;20037;-80
2023/10/29 02:31:46;;;;;;;6.03;4.13;;;11.90;99.90;;;;;;5039861;28;20067;-81
2023/10/29 02:34:12;;;;;;;4.72;3.78;;;11.90;99.90;;;;;;5041679;28;20037;-81
2023/10/29 02:36:37;;;;;;;4.75;3.50;;;11.90;99.90;;;;;;5041659;28;20055;-82
2023/10/29 02:39:03;;;;;;;5.65;3.70;;;11.90;99.90;;;;;;5040218;28;20124;-79
2023/10/29 02:41:30;;;;;;;5.60;3.10;;;12.00;99.90;;;;;;5040118;28;20037;-81
2023/10/29 02:43:55;;;;;;;5.38;3.30;;;12.00;99.90;;;;;;5041770;28;20041;-81
2023/10/29 02:46:21;;;;;;;7.28;3.30;;;12.00;99.90;;;;;;5039153;28;20080;-81
2023/10/29 02:48:46;;;;;;;5.07;3.00;;;12.00;99.90;;;;;;5039519;28;20045;-81
2023/10/29 02:51:12;;;;;;;5.20;2.90;;;12.00;99.90;;;;;;5040484;28;20061;-80
2023/10/29 02:53:41;;;;;;;4.97;3.10;;;11.90;99.90;;;;;;5033634;28;20493;-81
2023/10/29 02:56:07;;;;;;;4.93;2.90;;;11.90;99.90;;;;;;5023650;28;20053;-83
2023/10/29 02:58:33;;;;;;;5.28;2.70;;;11.80;99.90;;;;;;5038727;28;20034;-81
2023/10/29 03:01:08;;;;;;;4.88;3.08;;;11.80;99.90;;;;;;5039615;28;20120;-82
2023/10/29 03:03:37;;;;;;;4.03;2.75;;;11.80;99.90;;;;;;5020117;28;20072;-81
2023/10/29 03:06:07;;;;;;;4.43;2.30;;;11.80;99.90;;;;;;5038858;28;20116;-83
2023/10/29 03:08:34;;;;;;;4.40;2.95;;;11.80;99.90;;;;;;5020805;28;20548;-82
2023/10/29 03:11:00;;;;;;;5.60;2.50;;;11.80;99.90;;;;;;5020063;28;20447;-82
2023/10/29 03:13:25;;;;;;;4.40;2.50;;;11.80;99.90;;;;;;5037315;28;20038;-83
2023/10/29 03:15:51;;;;;;;3.53;2.55;;;11.80;99.90;;;;;;5034851;28;20029;-82
2023/10/29 03:18:17;;;;;;;5.88;2.60;;;11.80;99.90;;;;;;5035101;28;20037;-83
2023/10/29 03:20:42;;;;;;;4.88;2.30;;;11.90;99.90;;;;;;5033116;28;20029;-84
2023/10/29 03:23:08;;;;;;;3.83;2.35;;;11.90;99.90;;;;;;5018384;28;20495;-82
2023/10/29 03:25:34;;;;;;;4.10;2.28;;;11.90;99.90;;;;;;5038085;28;20411;-81
2023/10/29 03:28:00;;;;;;;4.97;2.30;;;11.90;99.90;;;;;;5019997;28;20034;-83
2023/10/29 03:30:25;;;;;;;4.50;2.17;;;11.90;99.90;;;;;;5020694;28;20033;-81
2023/10/29 03:32:51;;;;;;;5.55;2.25;;;11.90;99.90;;;;;;5021575;28;20080;-80
2023/10/29 03:35:17;;;;;;;3.60;1.80;;;11.90;99.90;;;;;;5036157;28;20041;-82
2023/10/29 03:37:43;;;;;;;5.35;2.55;;;11.90;99.90;;;;;;5035882;28;20064;-82
2023/10/29 03:40:08;;;;;;;4.30;1.95;;;11.90;99.90;;;;;;5036237;28;20493;-82
2023/10/29 03:42:34;;;;;;;4.43;1.90;;;11.90;99.90;;;;;;5036013;28;20033;-83
2023/10/29 03:45:00;;;;;;;4.35;1.55;;;11.80;99.90;;;;;;5038586;28;20184;-82
2023/10/29 03:47:25;;;;;;;4.88;1.50;;;11.90;99.90;;;;;;5036826;28;20175;-83
2023/10/29 03:49:51;;;;;;;2.80;1.63;;;11.90;99.90;;;;;;5034959;28;20033;-82
2023/10/29 03:52:19;;;;;;;3.38;1.80;;;11.80;99.90;;;;;;5037786;28;20558;-81
2023/10/29 03:54:45;;;;;;;4.18;1.67;;;11.80;99.90;;;;;;5019011;28;20061;-81
2023/10/29 03:57:10;;;;;;;2.63;1.38;;;11.90;99.90;;;;;;5032029;28;20138;-82
2023/10/29 03:59:36;;;;;;;3.88;1.67;;;11.90;99.90;;;;;;5034476;28;20030;-83
2023/10/29 04:02:02;;;;;;;5.35;1.58;;;12.00;99.90;;;;;;5034476;28;20041;-80
2023/10/29 04:04:28;;;;;;;2.72;1.38;;;12.00;99.90;;;;;;5035418;28;20104;-82
2023/10/29 04:06:53;;;;;;;4.53;1.70;;;12.10;99.90;;;;;;5035960;28;20057;-83
2023/10/29 04:09:19;;;;;;;5.60;1.63;;;12.20;99.90;;;;;;5018650;28;20033;-82
2023/10/29 04:11:44;;;;;;;3.13;1.45;;;12.20;99.90;;;;;;5034550;28;20056;-82
2023/10/29 04:14:10;;;;;;;3.90;1.35;;;12.20;99.90;;;;;;5033381;28;20041;-84
2023/10/29 04:16:35;;;;;;;2.13;1.40;;;12.30;99.90;;;;;;5036272;28;20033;-81
2023/10/29 04:19:01;;;;;;;2.15;1.25;;;12.30;99.90;;;;;;5035886;28;20404;-85
2023/10/29 04:21:27;;;;;;;1.83;1.05;;;12.30;99.90;;;;;;5034035;28;20038;-83
2023/10/29 04:23:52;;;;;;;2.45;1.10;;;12.30;99.90;;;;;;5033200;28;20033;-82
2023/10/29 04:26:18;;;;;;;4.30;1.40;;;12.40;99.90;;;;;;5018297;28;20095;-83
2023/10/29 04:28:44;;;;;;;3.90;1.42;;;12.40;99.90;;;;;;5033055;28;20420;-82
2023/10/29 04:31:09;;;;;;;6.40;1.60;;;12.40;99.90;;;;;;5034019;28;20073;-83
2023/10/29 04:33:35;;;;;;;3.72;1.20;;;12.40;99.90;;;;;;5037877;28;20037;-81
2023/10/29 04:36:00;;;;;;;2.50;1.20;;;12.40;99.90;;;;;;5034759;28;20038;-82
2023/10/29 04:38:26;;;;;;;1.63;0.70;;;12.40;99.90;;;;;;5034732;28;20040;-81
2023/10/29 04:40:52;;;;;;;1.70;0.60;;;12.30;99.90;;;;;;5035215;28;20083;-81
2023/10/29 04:43:17;;;;;;;1.05;0.60;;;12.20;99.90;;;;;;5033975;28;20416;-79
2023/10/29 04:45:43;;;;;;;1.08;0.50;;;12.10;99.90;;;;;;5033745;28;20029;-83
2023/10/29 04:48:09;;;;;;;0.82;0.50;;;12.10;99.90;;;;;;5017461;28;20095;-82
2023/10/29 04:50:34;;;;;;;3.10;0.90;;;12.00;99.90;;;;;;5034881;28;20579;-82
2023/10/29 04:53:02;;;;;;;1.90;0.63;;;11.90;99.90;;;;;;5034094;28;20041;-81
2023/10/29 04:55:28;;;;;;;2.33;0.75;;;11.90;99.90;;;;;;5033625;28;20084;-81
2023/10/29 04:57:54;;;;;;;1.02;0.47;;;11.80;99.90;;;;;;5016985;28;20037;-82
2023/10/29 05:00:19;;;;;;;1.25;0.50;;;11.80;99.90;;;;;;5033504;28;20511;-81
2023/10/29 05:02:45;;;;;;;2.55;0.70;;;11.80;99.90;;;;;;5034662;28;20033;-82
2023/10/29 05:05:11;;;;;;;1.27;0.52;;;11.70;99.90;;;;;;5017673;28;20124;-81
2023/10/29 05:07:37;;;;;;;1.05;0.57;;;11.70;99.90;;;;;;5018167;28;20045;-81
2023/10/29 05:10:04;;;;;;;1.08;0.45;;;11.70;99.90;;;;;;5034990;28;20420;-78
2023/10/29 05:12:29;;;;;;;2.38;0.70;;;11.70;99.90;;;;;;5036140;28;20531;-80
2023/10/29 05:14:55;;;;;;;1.70;0.63;;;11.70;99.90;;;;;;5035630;28;20098;-82
2023/10/29 05:17:20;;;;;;;3.40;0.70;;;11.60;99.90;;;;;;5036778;28;20120;-81
2023/10/29 05:19:46;;;;;;;1.10;0.68;;;11.60;99.90;;;;;;5037702;28;20129;-80
2023/10/29 05:22:11;;;;;;;2.35;0.70;;;11.50;99.90;;;;;;5036299;28;20544;-81
2023/10/29 05:24:37;;;;;;;2.13;1.00;;;11.50;99.90;;;;;;5035985;28;20109;-80
2023/10/29 05:27:05;;;;;;;5.03;1.15;;;11.40;99.90;;;;;;5034558;28;20053;-80
2023/10/29 05:29:32;;;;;;;2.97;0.85;;;11.40;99.90;;;;;;5034167;28;20033;-81
2023/10/29 05:31:58;;;;;;;2.47;0.82;;;11.40;99.90;;;;;;5034641;28;20053;-80
2023/10/29 05:34:23;;;;;;;1.27;0.47;;;11.40;99.90;;;;;;5034582;28;20038;-81
2023/10/29 05:36:49;;;;;;;2.92;0.77;;;11.30;99.90;;;;;;5035647;28;20047;-81
2023/10/29 05:39:15;;;;;;;3.42;0.80;;;11.30;99.90;;;;;;5035528;28;20033;-79
2023/10/29 05:41:41;;;;;;;2.38;0.70;;;11.30;99.90;;;;;;5032950;28;20029;-81
2023/10/29 05:44:06;;;;;;;3.03;0.70;;;11.20;99.90;;;;;;5034376;28;20052;-82
2023/10/29 05:46:32;;;;;;;2.00;0.63;;;11.20;99.90;;;;;;5035483;28;20042;-82
2023/10/29 05:48:58;;;;;;;1.88;0.68;;;11.20;99.90;;;;;;5034312;28;20037;-80
2023/10/29 05:51:24;;;;;;;0.98;0.60;;;11.20;99.90;;;;;;5033633;28;20033;-81
2023/10/29 05:53:49;;;;;;;2.63;0.90;;;11.30;99.90;;;;;;5035535;28;20042;-81
2023/10/29 05:56:15;;;;;;;1.88;1.17;;;11.30;99.90;;;;;;5034134;28;20038;-80
2023/10/29 05:58:41;;;;;;;2.65;0.80;;;11.30;99.90;;;;;;5016098;28;20056;-81
2023/10/29 06:01:07;;;;;;;2.45;0.80;;;11.30;99.90;;;;;;5017961;28;20448;-81
2023/10/29 06:03:33;;;;;;;2.97;1.23;;;11.40;99.90;;;;;;5033581;28;20064;-80
2023/10/29 06:05:59;;;;;;;3.25;0.90;;;11.50;99.90;;;;;;5033685;28;20064;-79
2023/10/29 06:08:25;;;;;;;1.45;0.77;;;11.50;99.90;;;;;;5033638;28;20137;-80
2023/10/29 06:10:50;;;;;;;2.95;0.90;;;11.60;99.90;;;;;;5017074;28;20056;-81
2023/10/29 06:13:16;;;;;;;3.65;1.20;;;11.60;99.90;;;;;;5018515;28;20049;-82
2023/10/29 06:15:42;;;;;;;2.38;0.88;;;11.60;99.90;;;;;;5035039;28;20040;-82
2023/10/29 06:18:07;;;;;;;4.07;1.20;;;11.60;99.90;;;;;;5036766;28;20393;-82
2023/10/29 06:20:34;;;;;;;1.55;0.98;;;11.60;99.90;;;;;;5037357;28;20034;-82
2023/10/29 06:22:59;;;;;;;3.33;1.00;;;11.60;99.90;;;;;;5020086;28;20033;-81
2023/10/29 06:25:26;;;;;;;3.10;0.80;;;11.60;99.90;;;;;;5036554;28;20047;-81
2023/10/29 06:27:51;;;;;;;3.67;1.05;;;11.60;99.90;;;;;;5035608;28;20033;-81
2023/10/29 06:30:17;;;;;;;2.38;1.00;;;11.60;99.90;;;;;;5033013;28;20048;-80
2023/10/29 06:32:43;;;;;;;4.95;1.20;;;11.60;99.90;;;;;;5033184;28;20044;-81
2023/10/29 06:35:09;;;;;;;2.85;0.95;;;11.60;99.90;;;;;;5030564;28;20044;-78
2023/10/29 06:37:34;;;;;;;3.85;1.40;;;11.60;99.90;;;;;;5029290;28;20038;-77
2023/10/29 06:40:00;;;;;;;3.33;1.20;;;11.60;99.90;;;;;;5031505;28;20072;-81
2023/10/29 06:42:26;;;;;;;3.95;1.15;;;11.60;99.90;;;;;;5034198;28;20048;-80
2023/10/29 06:44:51;;;;;;;4.90;1.30;;;11.60;99.90;;;;;;5020119;28;20217;-80
2023/10/29 06:47:17;;;;;;;5.82;1.05;;;11.70;99.90;;;;;;5020712;28;20038;-79
2023/10/29 06:49:42;;;;;;;4.95;1.08;;;11.60;99.90;;;;;;5020258;28;20501;-80
2023/10/29 06:52:09;;;;;;;3.08;0.90;;;11.60;99.90;;;;;;5036442;28;20500;-80
2023/10/29 06:54:35;;;;;;;4.45;1.88;;;11.60;99.90;;;;;;5035786;28;20041;-80
2023/10/29 06:57:02;;;;;;;2.15;0.93;;;11.60;99.90;;;;;;5036058;28;20074;-80
2023/10/29 06:59:31;;;;;;;5.72;1.30;;;11.60;99.90;;;;;;5019769;28;20038;-80
2023/10/29 07:01:58;;;;;;;3.15;0.80;;;11.60;99.90;;;;;;5035529;28;20137;-80
2023/10/29 07:04:27;;;;;;;4.32;1.15;;;11.60;99.90;;;;;;5035868;28;20049;-80
2023/10/29 07:06:52;;;;;;;4.75;1.17;;;11.60;99.90;;;;;;5036576;28;20038;-79
2023/10/29 07:09:18;;;;;;;2.90;0.88;;;11.80;99.90;;;;;;5037438;28;20043;-81
2023/10/29 07:11:44;;;;;;;4.78;0.70;;;11.70;99.90;;;;;;5035674;28;20094;-80
2023/10/29 07:14:10;;;;;;;4.10;1.00;;;11.80;99.90;;;;;;5033843;28;20037;-80
2023/10/29 07:16:37;;;;;;;4.38;0.85;;;11.80;99.90;;;;;;5035792;28;20089;-80
2023/10/29 07:19:04;;;;;;;1.60;0.77;;;11.90;99.90;;;;;;5035230;28;20037;-81
2023/10/29 07:21:30;;;;;;;3.13;0.95;;;11.90;99.90;;;;;;5037837;28;20109;-78
2023/10/29 07:23:55;;;;;;;5.07;1.27;;;11.90;99.90;;;;;;5035638;28;20072;-81
2023/10/29 07:26:21;;;;;;;7.53;1.98;;;11.90;99.90;;;;;;5018726;28;20033;-81
2023/10/29 07:28:46;;;;;;;2.95;1.10;;;12.00;99.90;;;;;;5035265;28;20037;-79
2023/10/29 07:31:12;;;;;;;3.22;1.05;;;12.00;99.90;;;;;;5034972;28;20037;-80
2023/10/29 07:33:37;;;;;;;2.75;0.90;;;12.00;99.90;;;;;;5036508;28;20121;-80
2023/10/29 07:36:04;;;;;;;1.95;0.93;;;12.00;99.90;;;;;;5036653;28;20042;-79
2023/10/29 07:38:30;;;;;;;3.97;0.70;;;12.10;99.90;;;;;;5037244;28;20075;-78
2023/10/29 07:40:55;;;;;;;2.75;0.90;;;12.00;99.90;;;;;;5036177;28;20037;-82
2023/10/29 07:43:21;;;;;;;2.70;0.98;;;12.00;99.90;;;;;;5036191;28;20034;-80
2023/10/29 07:45:51;;;;;;;4.35;1.00;;;12.10;99.90;;;;;;5036254;28;20045;-80
2023/10/29 07:48:18;;;;;;;4.40;1.35;;;12.10;99.90;;;;;;5020843;28;20316;-80
2023/10/29 07:50:51;;;;;;;4.07;0.88;;;12.20;99.90;;;;;;5036318;28;20045;-81
2023/10/29 07:53:16;;;;;;;4.13;1.27;;;12.20;99.90;;;;;;5036596;28;20048;-80
2023/10/29 07:55:42;;;;;;;4.70;1.35;;;12.20;99.90;;;;;;5034635;28;20037;-79
2023/10/29 07:58:07;;;;;;;3.35;1.27;;;12.30;99.90;;;;;;5036172;28;20408;-81
2023/10/29 08:00:35;;;;;;;4.03;1.05;;;12.30;99.90;;;;;;5035448;28;20131;-81
2023/10/29 08:03:01;;;;;;;3.22;0.85;;;12.30;99.90;;;;;;5035923;28;20041;-80
2023/10/29 08:05:26;;;;;;;2.03;0.90;;;12.40;99.90;;;;;;5037804;28;20041;-79
2023/10/29 08:07:52;;;;;;;3.38;0.95;;;12.50;99.90;;;;;;5037176;28;20068;-79
2023/10/29 08:10:17;;;;;;;5.13;0.93;;;12.60;99.90;;;;;;5035273;28;20454;-80
2023/10/29 08:12:43;;;;;;;2.97;0.80;;;12.60;99.90;;;;;;5035619;28;20216;-80
2023/10/29 08:15:09;;;;;;;5.30;1.00;;;12.60;99.90;;;;;;5035288;28;20120;-80
2023/10/29 08:17:34;;;;;;;3.33;0.80;;;12.70;99.90;;;;;;5036247;28;20125;-81
2023/10/29 08:20:00;;;;;;;2.78;0.80;;;12.70;99.90;;;;;;5034658;28;20037;-79
2023/10/29 08:22:26;;;;;;;4.35;0.90;;;12.60;99.90;;;;;;5036003;28;20068;-80
2023/10/29 08:24:52;;;;;;;4.28;0.90;;;12.60;99.90;;;;;;5035769;28;20052;-81
2023/10/29 08:27:17;;;;;;;6.40;1.00;;;12.70;99.90;;;;;;5034270;28;20105;-79
2023/10/29 08:29:44;;;;;;;3.38;0.90;;;12.70;99.90;;;;;;5034358;28;20037;-80
2023/10/29 08:32:10;;;;;;;4.55;0.90;;;12.70;99.90;;;;;;5034238;28;20045;-80
2023/10/29 08:34:36;;;;;;;3.22;0.98;;;12.80;99.90;;;;;;5032750;28;20091;-79
2023/10/29 08:37:01;;;;;;;3.95;0.90;;;12.80;99.90;;;;;;5034812;28;20420;-79
2023/10/29 08:39:27;;;;;;;3.00;0.80;;;12.80;99.90;;;;;;5033487;28;20044;-78
2023/10/29 08:41:53;;;;;;;5.35;1.00;;;12.90;99.90;;;;;;5034091;28;20038;-81
2023/10/29 08:44:19;;;;;;;2.85;0.90;;;12.90;99.90;;;;;;5036606;28;20041;-80
2023/10/29 08:46:46;;;;;;;4.15;0.93;;;13.00;99.90;;;;;;5034190;28;20045;-80
2023/10/29 08:49:11;;;;;;;4.50;0.93;;;13.10;99.90;;;;;;5035740;28;20042;-80
2023/10/29 08:51:37;;;;;;;5.78;1.10;;;13.10;99.90;;;;;;5035561;28;20125;-82
2023/10/29 08:54:03;;;;;;;6.30;1.17;;;13.10;99.90;;;;;;5035523;28;20057;-79
2023/10/29 08:56:33;;;;;;;5.15;0.90;;;13.10;99.90;;;;;;5036533;28;20076;-79
2023/10/29 08:58:59;;;;;;;4.65;0.80;;;13.20;99.90;;;;;;5035842;28;20048;-80
2023/10/29 09:01:24;;;;;;;7.25;1.00;;;13.20;99.90;;;;;;5034811;28;20042;-79
2023/10/29 09:03:50;;;;;;;2.15;0.80;;;13.20;99.90;;;;;;5036186;28;20505;-79
2023/10/29 09:06:16;;;;;;;3.75;1.33;;;13.30;99.90;;;;;;5038564;28;20120;-80
2023/10/29 09:08:41;;;;;;;3.78;0.93;;;13.20;99.90;;;;;;5034910;28;20195;-80
2023/10/29 09:11:13;;;;;;;4.97;0.90;;;13.20;99.90;;;;;;5033314;28;20043;-78
2023/10/29 09:13:39;;;;;;;4.78;1.00;;;13.20;99.90;;;;;;5034619;28;20040;-78
2023/10/29 09:16:04;;;;;;;4.40;1.20;;;13.10;99.90;;;;;;5036726;28;20719;-78
2023/10/29 09:18:30;;;;;;;6.32;1.42;;;13.20;99.90;;;;;;5035890;28;20489;-80
2023/10/29 09:20:55;;;;;;;4.22;0.90;;;13.20;99.90;;;;;;5035386;28;20041;-81
2023/10/29 09:23:23;;;;;;;6.03;1.55;;;13.20;99.90;;;;;;5035125;28;20068;-79
2023/10/29 09:25:48;;;;;;;9.70;1.20;;;13.30;99.90;;;;;;5036551;28;20041;-80
2023/10/29 09:28:14;;;;;;;8.45;0.90;;;13.40;99.90;;;;;;5037034;28;20446;-79
2023/10/29 09:30:40;;;;;;;8.23;0.90;;;13.50;99.90;;;;;;5037694;28;20040;-81
2023/10/29 09:33:08;;;;;;;6.28;1.10;;;13.70;99.90;;;;;;5036434;28;20046;-79
2023/10/29 09:35:35;;;;;;;4.20;0.88;;;13.80;99.90;;;;;;5036568;28;20060;-79
2023/10/29 09:38:01;;;;;;;5.78;1.15;;;13.90;99.90;;;;;;5035040;28;20128;-81
2023/10/29 09:40:27;;;;;;;3.92;0.93;;;13.90;99.90;;;;;;5035912;28;20064;-79
2023/10/29 09:42:54;;;;;;;3.78;0.85;;;14.00;99.90;;;;;;5034117;28;20045;-79
2023/10/29 09:45:25;;;;;;;4.78;0.90;;;14.00;99.90;;;;;;5034302;28;20080;-79
2023/10/29 09:47:52;;;;;;;4.10;0.85;;;14.00;99.90;;;;;;5034022;28;20037;-79
2023/10/29 09:50:22;;;;;;;5.45;1.10;;;13.90;99.90;;;;;;5032385;28;20048;-78
2023/10/29 09:52:54;;;;;;;5.05;1.00;;;13.90;99.90;;;;;;5023446;28;20041;-80
2023/10/29 09:55:21;;;;;;;4.63;1.02;;;13.90;99.90;;;;;;5022426;28;20501;-79
2023/10/29 09:57:47;;;;;;;6.93;1.33;;;14.00;99.90;;;;;;5021478;28;20072;-77
2023/10/29 10:00:16;;;;;;;3.03;0.90;;;14.00;99.90;;;;;;5019288;28;20056;-79
2023/10/29 10:02:53;;;;;;;6.55;1.20;;;14.00;99.90;;;;;;5020017;28;20034;-78
2023/10/29 10:05:21;;;;;;;4.20;1.05;;;13.90;99.90;;;;;;5022063;28;20044;-78
2023/10/29 10:07:47;;;;;;;3.58;1.05;;;13.90;99.90;;;;;;5020546;28;20571;-78
2023/10/29 10:10:13;;;;;;;3.38;0.93;;;14.00;99.90;;;;;;5023011;28;20049;-79
2023/10/29 10:12:46;;;;;;;3.20;0.90;;;14.10;99.90;;;;;;5031663;28;20048;-79
2023/10/29 10:15:16;;;;;;;2.83;1.10;;;14.20;99.90;;;;;;5031938;28;20046;-80
2023/10/29 10:17:57;;;;;;;4.10;1.20;;;14.30;99.90;;;;;;5033426;28;20029;-79
2023/10/29 10:20:22;;;;;;;5.00;1.20;;;14.40;99.90;;;;;;5031228;28;20501;-82
2023/10/29 10:23:06;;;;;;;6.20;1.80;;;14.50;99.90;;;;;;5030466;28;20048;-79
2023/10/29 10:25:34;;;;;;;3.92;1.42;;;14.60;99.90;;;;;;5026149;28;20386;-79
2023/10/29 10:28:00;;;;;;;4.60;1.30;;;14.60;99.90;;;;;;5025784;28;20077;-79
2023/10/29 10:30:40;;;;;;;3.78;1.35;;;14.90;99.90;;;;;;5024664;28;20046;-80
2023/10/29 10:33:19;;;;;;;4.82;1.02;;;14.50;99.90;;;;;;5025620;28;20042;-80
2023/10/29 10:35:47;;;;;;;6.65;1.33;;;14.40;99.90;;;;;;5023699;28;20355;-80
2023/10/29 10:38:14;;;;;;;4.88;1.08;;;14.30;99.90;;;;;;5025552;28;20035;-79
2023/10/29 10:40:40;;;;;;;6.60;1.30;;;14.30;99.90;;;;;;5010934;28;20072;-78
2023/10/29 10:43:09;;;;;;;6.50;1.35;;;14.20;99.90;;;;;;5035723;28;20041;-79
2023/10/29 10:45:36;;;;;;;4.75;1.13;;;14.60;99.90;;;;;;5036421;28;20045;-81
2023/10/29 10:48:04;;;;;;;6.68;1.50;;;14.20;99.90;;;;;;5020377;28;20121;-79
2023/10/29 10:50:31;;;;;;;3.50;1.00;;;14.20;99.90;;;;;;5031445;28;20496;-79
2023/10/29 10:52:57;;;;;;;5.25;1.27;;;14.30;99.90;;;;;;5021586;28;20129;-80
2023/10/29 10:55:24;;;;;;;5.13;1.70;;;14.40;99.90;;;;;;5017129;28;20074;-79
2023/10/29 10:57:50;;;;;;;5.15;0.98;;;14.40;99.90;;;;;;5033544;28;20038;-79
2023/10/29 11:00:18;;;;;;;5.47;1.40;;;14.40;99.90;;;;;;5020244;28;20040;-79
2023/10/29 11:02:44;;;;;;;6.28;1.60;;;14.40;99.90;;;;;;5032579;28;20078;-79
2023/10/29 11:05:11;;;;;;;5.18;1.17;;;14.50;99.90;;;;;;5027659;28;20041;-79
2023/10/29 11:07:39;;;;;;;7.10;1.42;;;14.50;99.90;;;;;;5026546;28;20045;-80
2023/10/29 11:10:08;;;;;;;4.97;1.23;;;14.50;99.90;;;;;;5024094;28;20045;-80
2023/10/29 11:12:34;;;;;;;4.22;1.30;;;14.50;99.90;;;;;;5026320;28;20064;-79
2023/10/29 11:15:16;;;;;;;3.38;1.20;;;14.50;99.90;;;;;;5036548;28;20038;-80
2023/10/29 11:18:02;;;;;;;5.07;1.80;;;14.50;99.90;;;;;;5035488;28;20083;-80
2023/10/29 11:20:36;;;;;;;4.97;1.30;;;14.40;99.90;;;;;;5035693;28;20064;-79
2023/10/29 11:23:09;;;;;;;6.55;1.52;;;14.40;99.90;;;;;;5039762;28;20037;-79
2023/10/29 11:25:38;;;;;;;6.90;1.42;;;14.40;99.90;;;;;;5039459;28;20042;-81
2023/10/29 11:28:04;;;;;;;5.10;1.45;;;14.50;99.90;;;;;;5039779;28;20041;-80
2023/10/29 11:30:29;;;;;;;5.45;1.88;;;14.50;99.90;;;;;;5038849;28;20094;-80
2023/10/29 11:33:14;;;;;;;5.82;1.48;;;14.40;99.90;;;;;;5024428;28;20037;-79
2023/10/29 11:35:40;;;;;;;5.57;1.50;;;14.40;99.90;;;;;;5038629;28;20037;-79
2023/10/29 11:38:27;;;;;;;6.22;1.55;;;14.60;99.90;;;;;;5036814;28;20120;-80
2023/10/29 11:40:53;;;;;;;6.90;1.75;;;14.60;99.90;;;;;;5038917;28;20037;-80
2023/10/29 11:43:22;;;;;;;7.05;1.58;;;14.60;99.90;;;;;;5039091;28;20064;-81
2023/10/29 11:45:53;;;;;;;6.43;1.50;;;14.50;99.90;;;;;;5039618;28;20076;-79
2023/10/29 11:48:19;;;;;;;6.32;1.48;;;14.50;99.90;;;;;;5038939;28;20445;-80
2023/10/29 11:51:03;;;;;;;7.85;1.70;;;14.40;99.90;;;;;;5039401;28;20087;-79
2023/10/29 11:53:29;;;;;;;5.93;1.33;;;14.30;99.90;;;;;;5030057;28;20092;-79
2023/10/29 11:55:59;;;;;;;4.85;1.23;;;14.30;99.90;;;;;;5039055;28;20045;-80
2023/10/29 11:58:26;;;;;;;8.27;1.80;;;14.20;99.90;;;;;;5039314;28;20033;-80
2023/10/29 12:00:52;;;;;;;4.93;1.15;;;14.20;99.90;;;;;;5037943;28;20115;-81
2023/10/29 12:03:21;;;;;;;6.75;1.42;;;14.20;99.90;;;;;;5039349;28;20033;-79
2023/10/29 12:05:51;;;;;;;7.30;1.80;;;14.30;99.90;;;;;;5040761;28;20103;-80
2023/10/29 12:08:17;;;;;;;9.95;1.90;;;14.30;99.90;;;;;;5039120;28;20037;-80
2023/10/29 12:10:55;;;;;;;7.18;1.60;;;14.30;99.90;;;;;;5041747;28;20116;-80
2023/10/29 12:13:21;;;;;;;8.38;1.73;;;14.20;99.90;;;;;;5037380;28;20033;-80
2023/10/29 12:16:02;;;;;;;7.15;1.92;;;14.20;99.90;;;;;;5037865;28;20171;-79
2023/10/29 12:18:28;;;;;;;7.35;1.52;;;14.20;99.90;;;;;;5032762;28;20030;-79
2023/10/29 12:21:09;;;;;;;7.20;1.95;;;14.10;99.90;;;;;;5039431;28;20033;-79
2023/10/29 12:23:36;;;;;;;4.68;1.30;;;14.10;99.90;;;;;;5038317;28;20033;-80
2023/10/29 12:26:04;;;;;;;5.07;1.33;;;14.20;99.90;;;;;;5038314;28;20051;-80
2023/10/29 12:28:31;;;;;;;6.53;1.15;;;14.20;99.90;;;;;;5038772;28;20044;-80
2023/10/29 12:30:57;;;;;;;6.63;1.35;;;14.20;99.90;;;;;;5021404;28;20049;-79
2023/10/29 12:33:26;;;;;;;8.27;1.52;;;14.20;99.90;;;;;;5037236;28;20041;-79
2023/10/29 12:35:53;;;;;;;5.15;1.17;;;14.20;99.90;;;;;;5038486;28;20048;-81
2023/10/29 12:38:20;;;;;;;7.65;1.88;;;14.20;99.90;;;;;;5039792;28;20029;-81
2023/10/29 12:41:09;;;;;;;8.20;1.40;;;14.20;99.90;;;;;;5036788;28;20116;-81
2023/10/29 12:43:37;;;;;;;6.57;1.20;;;14.20;99.90;;;;;;5021681;28;20040;-80
2023/10/29 12:46:08;;;;;;;6.43;1.42;;;14.20;99.90;;;;;;5022303;28;20053;-81